RCSS/TSA METAR and TAF weather

Enter ICAO airport designator
Station Type Date Time Source
RCSS METAR 2020/01/19 14:00 UTC NOAA

RCSS 191400Z 10006KT 9999 VCSH FEW008 BKN018 BKN040 15/12 Q1022 NOSIG RMK A3020


Station Type Date Time Source
RCSS Decoded METAR 2020/01/19 14:00 UTC NOAA

Sungshan / Taipei, Taiwan (RCSS) 25-04N 121-33E
Jan 19, 2020 - 09:00 AM EST / 2020.01.19 1400 UTC
Wind: from the E (100 degrees) at 7 MPH (6 KT):0
Visibility: greater than 7 mile(s):0
Sky conditions: mostly cloudy
Weather: showers in the vicinity
Temperature: 59 F (15 C)
Dew Point: 53 F (12 C)
Relative Humidity: 82%
Pressure (altimeter): 30.18 in. Hg (1022 hPa)
ob: RCSS 191400Z 10006KT 9999 VCSH FEW008 BKN018 BKN040 15/12 Q1022 NOSIG RMK A3020
cycle: 14

Station Type Date Time Source
RCSS TAF 2020/01/19 12:12 UTC NOAA

TAF RCSS 191100Z 1912/2012 08005KT 9000 FEW015 BKN032
TEMPO 1912/1918 FEW010 BKN018 BKN040
TEMPO 1919/2001 4500 BR

Example: see airport list